Time;durP1;ratioP1;P1;durP2;ratioP2;P2;SDS_P1;SDS_P2;PMS_P1;PMS_P2;Temp;Humidity;BMP_temperature;BMP_pressure;BME280_temperature;BME280_humidity;BME280_pressure;Samples;Min_cycle;Max_cycle;Signal;HPM_P1;HPM_P2
2022/06/16 00:01:46;;;;;;;9.90;7.43;;;;;;;;;;5047850;28;20017;-79
2022/06/16 00:04:12;;;;;;;10.20;7.57;;;;;;;;;;5065977;28;20029;-80
2022/06/16 00:06:38;;;;;;;10.57;7.65;;;;;;;;;;5061885;28;20021;-82
2022/06/16 00:09:04;;;;;;;11.60;8.15;;;;;;;;;;5060437;28;20039;-82
2022/06/16 00:11:30;;;;;;;9.95;7.18;;;;;;;;;;5046371;28;20053;-80
2022/06/16 00:13:56;;;;;;;9.82;7.68;;;;;;;;;;5049151;28;20022;-80
2022/06/16 00:16:23;;;;;;;11.00;8.43;;;;;;;;;;5053315;28;20548;-80
2022/06/16 00:18:49;;;;;;;8.85;7.53;;;;;;;;;;5071323;28;20480;-81
2022/06/16 00:21:15;;;;;;;9.20;7.45;;;;;;;;;;5069089;28;20450;-80
2022/06/16 00:23:41;;;;;;;10.57;7.53;;;;;;;;;;5033558;28;20082;-81
2022/06/16 00:26:12;;;;;;;10.57;7.53;;;;;;;;;;5041699;28;20033;-80
2022/06/16 00:28:40;;;;;;;9.98;7.65;;;;;;;;;;5069427;28;20029;-81
2022/06/16 00:31:07;;;;;;;10.30;7.93;;;;;;;;;;5060671;28;20108;-82
2022/06/16 00:33:33;;;;;;;10.25;7.75;;;;;;;;;;5046452;28;20033;-81
2022/06/16 00:35:59;;;;;;;10.40;7.30;;;;;;;;;;5047063;28;20049;-80
2022/06/16 00:38:25;;;;;;;9.77;7.55;;;;;;;;;;5048554;28;20040;-81
2022/06/16 00:40:52;;;;;;;9.18;6.72;;;;;;;;;;5046174;28;20044;-80
2022/06/16 00:43:18;;;;;;;11.30;7.88;;;;;;;;;;5047565;28;20026;-78
2022/06/16 00:45:55;;;;;;;8.75;7.43;;;;;;;;;;5045198;28;20024;-81
2022/06/16 00:48:42;;;;;;;10.02;8.38;;;;;;;;;;5065199;28;20043;-79
2022/06/16 00:51:14;;;;;;;9.25;8.25;;;;;;;;;;5063277;28;20487;-79
2022/06/16 00:53:40;;;;;;;9.88;7.85;;;;;;;;;;5061879;28;20035;-80
2022/06/16 00:56:08;;;;;;;11.07;8.65;;;;;;;;;;5041525;28;20475;-79
2022/06/16 00:58:35;;;;;;;11.88;8.52;;;;;;;;;;5040875;28;20028;-78
2022/06/16 01:01:01;;;;;;;10.15;7.95;;;;;;;;;;5037611;28;20021;-78
2022/06/16 01:06:23;;;;;;;10.35;8.52;;;;;;;;;;5034565;28;20051;-78
2022/06/16 01:08:51;;;;;;;11.30;8.57;;;;;;;;;;5022253;28;20033;-79
2022/06/16 01:13:41;;;;;;;10.35;7.45;;;;;;;;;;5023342;28;20032;-79
2022/06/16 01:14:15;;;;;;;10.15;8.02;;;;;;;;;;5026403;28;20036;-79
2022/06/16 01:16:45;;;;;;;13.13;8.93;;;;;;;;;;5060024;28;20040;-79
2022/06/16 01:19:26;;;;;;;11.45;9.23;;;;;;;;;;5060056;28;20530;-79
2022/06/16 01:22:09;;;;;;;10.18;8.57;;;;;;;;;;5057440;28;20036;-78
2022/06/16 01:24:41;;;;;;;12.30;8.73;;;;;;;;;;5053050;28;20079;-78
2022/06/16 01:27:26;;;;;;;10.33;7.63;;;;;;;;;;5038671;28;20516;-79
2022/06/16 01:30:03;;;;;;;12.32;9.65;;;;;;;;;;5043236;28;20510;-79
2022/06/16 01:32:45;;;;;;;11.85;8.50;;;;;;;;;;5040349;28;20079;-78
2022/06/16 01:35:15;;;;;;;11.40;8.88;;;;;;;;;;5039471;28;20456;-78
2022/06/16 01:37:53;;;;;;;10.10;8.05;;;;;;;;;;5052126;28;20021;-78
2022/06/16 01:40:19;;;;;;;10.68;8.73;;;;;;;;;;5025272;28;21240;-78
2022/06/16 01:42:53;;;;;;;11.45;9.10;;;;;;;;;;5039831;28;20017;-78
2022/06/16 01:45:38;;;;;;;10.82;8.52;;;;;;;;;;5056897;28;20044;-78
2022/06/16 01:48:07;;;;;;;11.77;9.40;;;;;;;;;;5024374;28;20056;-78
2022/06/16 01:50:35;;;;;;;11.73;8.88;;;;;;;;;;5027205;28;20018;-80
2022/06/16 01:53:05;;;;;;;10.43;8.10;;;;;;;;;;5025223;28;20040;-80
2022/06/16 01:55:33;;;;;;;13.50;9.40;;;;;;;;;;5044829;28;20050;-81
2022/06/16 01:58:06;;;;;;;11.70;8.73;;;;;;;;;;5045066;28;20025;-80
2022/06/16 02:00:33;;;;;;;10.55;8.30;;;;;;;;;;5045111;28;20030;-79
2022/06/16 02:03:05;;;;;;;10.82;8.75;;;;;;;;;;5043260;28;20029;-82
2022/06/16 02:05:37;;;;;;;10.57;8.40;;;;;;;;;;5043753;28;20081;-81
2022/06/16 02:08:22;;;;;;;10.90;9.30;;;;;;;;;;5045061;28;20033;-81
2022/06/16 02:10:49;;;;;;;10.38;8.35;;;;;;;;;;5044462;28;20479;-81
2022/06/16 02:13:19;;;;;;;10.70;8.43;;;;;;;;;;5044850;28;20030;-82
2022/06/16 02:16:05;;;;;;;10.20;8.55;;;;;;;;;;5055357;28;20033;-82
2022/06/16 02:18:38;;;;;;;12.15;9.60;;;;;;;;;;5045379;28;20041;-82
2022/06/16 02:21:18;;;;;;;10.88;9.02;;;;;;;;;;5044030;28;20260;-82
2022/06/16 02:23:45;;;;;;;13.88;9.05;;;;;;;;;;5042820;28;20551;-79
2022/06/16 02:26:12;;;;;;;11.38;9.50;;;;;;;;;;5042517;28;20113;-80
2022/06/16 02:28:44;;;;;;;12.13;9.07;;;;;;;;;;5043438;28;20024;-79
2022/06/16 02:31:28;;;;;;;11.43;8.88;;;;;;;;;;5043178;28;20029;-78
2022/06/16 02:33:57;;;;;;;12.13;8.45;;;;;;;;;;5040263;28;20025;-79
2022/06/16 02:36:23;;;;;;;13.00;10.10;;;;;;;;;;5040584;28;20026;-78
2022/06/16 02:38:57;;;;;;;11.45;9.30;;;;;;;;;;5063318;28;20025;-79
2022/06/16 02:41:42;;;;;;;11.35;9.07;;;;;;;;;;5050198;28;20052;-79
2022/06/16 02:44:21;;;;;;;10.98;9.80;;;;;;;;;;5044088;28;20029;-81
2022/06/16 02:46:52;;;;;;;12.02;10.07;;;;;;;;;;5051887;28;20509;-81
2022/06/16 02:49:19;;;;;;;12.77;9.00;;;;;;;;;;5027059;28;20052;-79
2022/06/16 02:52:08;;;;;;;11.30;9.55;;;;;;;;;;5025328;28;20075;-80
2022/06/16 02:55:00;;;;;;;10.07;8.70;;;;;;;;;;5048144;28;20510;-80
2022/06/16 02:57:35;;;;;;;12.02;8.98;;;;;;;;;;5040130;28;20569;-79
2022/06/16 03:00:07;;;;;;;11.75;9.60;;;;;;;;;;5044218;28;20026;-80
2022/06/16 03:02:35;;;;;;;16.08;9.98;;;;;;;;;;5044619;28;20483;-80
2022/06/16 03:05:04;;;;;;;11.38;9.10;;;;;;;;;;5045089;28;20093;-78
2022/06/16 03:07:33;;;;;;;10.52;8.90;;;;;;;;;;5046967;28;20075;-80
2022/06/16 03:09:59;;;;;;;11.57;8.73;;;;;;;;;;5073702;28;20057;-80
2022/06/16 03:12:26;;;;;;;11.57;9.45;;;;;;;;;;5062014;28;20029;-81
2022/06/16 03:14:52;;;;;;;11.38;9.10;;;;;;;;;;5064806;28;20083;-80
2022/06/16 03:17:18;;;;;;;13.50;9.95;;;;;;;;;;5042471;28;20522;-80
2022/06/16 03:19:53;;;;;;;11.77;9.55;;;;;;;;;;5041424;28;20072;-78
2022/06/16 03:22:19;;;;;;;12.25;10.00;;;;;;;;;;5036190;28;20030;-79
2022/06/16 03:24:45;;;;;;;12.30;9.68;;;;;;;;;;5034290;28;20056;-79
2022/06/16 03:27:11;;;;;;;10.73;9.10;;;;;;;;;;5042203;28;20167;-79
2022/06/16 03:29:41;;;;;;;13.02;9.77;;;;;;;;;;5043008;28;20503;-80
2022/06/16 03:32:07;;;;;;;13.05;10.07;;;;;;;;;;5037626;28;20104;-79
2022/06/16 03:34:33;;;;;;;12.38;9.77;;;;;;;;;;5040237;28;20028;-78
2022/06/16 03:36:59;;;;;;;13.57;9.80;;;;;;;;;;5043448;28;20017;-79
2022/06/16 03:39:29;;;;;;;12.52;9.18;;;;;;;;;;5060864;28;20127;-79
2022/06/16 03:41:55;;;;;;;12.45;9.15;;;;;;;;;;5050437;28;20017;-79
2022/06/16 03:44:21;;;;;;;12.52;9.63;;;;;;;;;;5039483;28;20026;-78
2022/06/16 03:46:47;;;;;;;12.00;10.13;;;;;;;;;;5046484;28;20030;-78
2022/06/16 03:49:13;;;;;;;11.82;9.15;;;;;;;;;;5038070;28;20059;-78
2022/06/16 03:51:39;;;;;;;14.55;10.35;;;;;;;;;;5046878;28;20029;-78
2022/06/16 03:54:05;;;;;;;12.52;10.25;;;;;;;;;;5048428;28;20029;-78
2022/06/16 03:56:34;;;;;;;12.65;9.98;;;;;;;;;;5041660;28;20029;-79
2022/06/16 03:59:00;;;;;;;12.55;10.45;;;;;;;;;;5033972;28;20045;-78
2022/06/16 04:01:26;;;;;;;13.00;10.80;;;;;;;;;;5029658;28;20025;-79
2022/06/16 04:04:01;;;;;;;12.15;9.88;;;;;;;;;;5044680;28;20030;-79
2022/06/16 04:06:29;;;;;;;12.13;10.15;;;;;;;;;;5047421;28;20034;-78
2022/06/16 04:08:55;;;;;;;11.68;9.57;;;;;;;;;;5039534;28;20060;-78
2022/06/16 04:11:27;;;;;;;13.15;10.23;;;;;;;;;;5039468;28;20085;-79
2022/06/16 04:13:53;;;;;;;12.83;10.17;;;;;;;;;;5042909;28;20064;-79
2022/06/16 04:16:20;;;;;;;11.48;10.15;;;;;;;;;;5040493;28;20291;-79
2022/06/16 04:18:46;;;;;;;13.05;9.73;;;;;;;;;;5049636;28;20385;-78
2022/06/16 04:21:13;;;;;;;12.38;10.63;;;;;;;;;;5065730;28;20037;-79
2022/06/16 04:23:39;;;;;;;12.43;9.85;;;;;;;;;;5064999;28;20025;-79
2022/06/16 04:26:06;;;;;;;11.57;9.57;;;;;;;;;;5061162;28;20032;-79
2022/06/16 04:28:32;;;;;;;13.05;10.23;;;;;;;;;;5061824;28;20029;-79
2022/06/16 04:31:01;;;;;;;12.18;10.18;;;;;;;;;;5059522;28;20248;-79
2022/06/16 04:33:27;;;;;;;11.35;10.07;;;;;;;;;;5044961;28;20041;-79
2022/06/16 04:35:54;;;;;;;13.95;10.95;;;;;;;;;;5046326;28;20037;-80
2022/06/16 04:38:20;;;;;;;12.25;10.25;;;;;;;;;;5041002;28;20068;-79
2022/06/16 04:40:46;;;;;;;15.02;10.55;;;;;;;;;;5045761;28;20021;-79
2022/06/16 04:43:15;;;;;;;12.90;10.85;;;;;;;;;;5044658;28;20045;-79
2022/06/16 04:45:42;;;;;;;13.60;10.85;;;;;;;;;;5044498;28;20492;-80
2022/06/16 04:48:08;;;;;;;13.30;10.30;;;;;;;;;;5045664;28;20033;-79
2022/06/16 04:50:35;;;;;;;12.32;10.98;;;;;;;;;;5064971;28;20025;-78
2022/06/16 04:53:01;;;;;;;12.65;10.00;;;;;;;;;;5064112;28;20025;-79
2022/06/16 04:55:27;;;;;;;13.20;10.68;;;;;;;;;;5063327;28;20574;-79
2022/06/16 04:57:56;;;;;;;14.43;11.00;;;;;;;;;;5060823;28;20024;-79
2022/06/16 05:00:22;;;;;;;12.18;10.55;;;;;;;;;;5024483;28;20029;-79
2022/06/16 05:02:48;;;;;;;12.80;10.75;;;;;;;;;;5020854;28;20445;-79
2022/06/16 05:05:14;;;;;;;14.00;10.35;;;;;;;;;;5024186;28;20049;-79
2022/06/16 05:07:41;;;;;;;13.50;10.38;;;;;;;;;;5024027;28;20109;-79
2022/06/16 05:10:07;;;;;;;13.02;10.30;;;;;;;;;;5024527;28;20101;-80
2022/06/16 05:12:34;;;;;;;14.45;10.10;;;;;;;;;;5063656;28;20685;-79
2022/06/16 05:15:00;;;;;;;13.93;10.57;;;;;;;;;;5063715;28;20033;-78
2022/06/16 05:17:26;;;;;;;12.77;10.63;;;;;;;;;;5050036;28;20025;-79
2022/06/16 05:19:52;;;;;;;14.02;10.98;;;;;;;;;;5040140;28;20104;-79
2022/06/16 05:22:21;;;;;;;12.80;10.63;;;;;;;;;;5042696;28;20017;-79
2022/06/16 05:24:47;;;;;;;14.38;10.35;;;;;;;;;;5041976;28;20048;-79
2022/06/16 05:27:15;;;;;;;13.05;10.50;;;;;;;;;;5043945;28;20508;-79
2022/06/16 05:29:41;;;;;;;14.38;10.52;;;;;;;;;;5045066;28;20018;-79
2022/06/16 05:32:08;;;;;;;12.52;10.48;;;;;;;;;;5047618;28;20022;-78
2022/06/16 05:34:36;;;;;;;12.63;10.30;;;;;;;;;;5043539;28;20490;-79
2022/06/16 05:37:02;;;;;;;12.80;10.23;;;;;;;;;;5044073;28;20438;-79
2022/06/16 05:39:28;;;;;;;13.48;10.43;;;;;;;;;;5045491;28;20033;-79
2022/06/16 05:41:54;;;;;;;13.18;10.85;;;;;;;;;;5041539;28;20502;-79
2022/06/16 05:44:20;;;;;;;15.70;11.82;;;;;;;;;;5041687;28;20085;-79
2022/06/16 05:46:46;;;;;;;13.13;10.07;;;;;;;;;;5059368;28;20072;-78
2022/06/16 05:49:14;;;;;;;13.25;10.38;;;;;;;;;;5058733;28;20025;-80
2022/06/16 05:51:41;;;;;;;13.52;10.73;;;;;;;;;;5044144;28;20053;-79
2022/06/16 05:54:07;;;;;;;11.93;10.45;;;;;;;;;;5041832;28;20026;-79
2022/06/16 05:56:34;;;;;;;12.90;11.18;;;;;;;;;;5045898;28;20155;-79
2022/06/16 05:59:00;;;;;;;12.60;11.15;;;;;;;;;;5061228;28;20045;-80
2022/06/16 06:01:26;;;;;;;12.95;11.40;;;;;;;;;;5055285;28;20042;-80
2022/06/16 06:03:52;;;;;;;11.38;10.05;;;;;;;;;;5046030;28;20057;-81
2022/06/16 06:06:18;;;;;;;13.20;10.05;;;;;;;;;;5045690;28;20036;-81
2022/06/16 06:17:09;;;;;;;12.48;10.23;;;;;;;;;;5069964;28;20043;-82
2022/06/16 06:19:36;;;;;;;14.57;10.77;;;;;;;;;;5053956;28;20558;-81
2022/06/16 06:22:09;;;;;;;13.95;10.80;;;;;;;;;;5054144;28;20062;-82
2022/06/16 06:24:35;;;;;;;11.27;9.45;;;;;;;;;;5069882;28;20043;-83
2022/06/16 06:27:03;;;;;;;13.43;10.30;;;;;;;;;;5069274;28;20017;-82
2022/06/16 06:29:29;;;;;;;12.48;9.95;;;;;;;;;;5070427;28;20046;-82
2022/06/16 06:31:57;;;;;;;13.60;9.45;;;;;;;;;;5068128;28;20027;-83
2022/06/16 06:34:23;;;;;;;10.50;9.40;;;;;;;;;;5069879;28;20017;-82
2022/06/16 06:36:53;;;;;;;10.80;9.70;;;;;;;;;;5070173;28;20063;-79
2022/06/16 06:39:19;;;;;;;13.40;9.50;;;;;;;;;;5070867;28;20043;-79
2022/06/16 06:41:45;;;;;;;11.38;8.70;;;;;;;;;;5069738;28;20436;-81
2022/06/16 06:44:11;;;;;;;13.18;9.43;;;;;;;;;;5062308;28;20506;-80
2022/06/16 06:46:37;;;;;;;11.18;9.18;;;;;;;;;;5048283;28;20049;-82
2022/06/16 06:49:03;;;;;;;10.63;8.65;;;;;;;;;;5049365;28;20080;-82
2022/06/16 06:51:31;;;;;;;11.13;9.13;;;;;;;;;;5047623;28;20098;-79
2022/06/16 06:53:58;;;;;;;9.05;8.07;;;;;;;;;;5047539;28;20025;-83
2022/06/16 06:56:24;;;;;;;10.13;8.02;;;;;;;;;;5047499;28;20021;-78
2022/06/16 06:58:51;;;;;;;10.20;9.00;;;;;;;;;;5056035;28;20036;-77
2022/06/16 07:01:26;;;;;;;9.85;8.63;;;;;;;;;;5058206;28;20032;-77
2022/06/16 07:03:55;;;;;;;10.82;8.98;;;;;;;;;;5058542;28;20013;-77
2022/06/16 07:06:22;;;;;;;12.18;8.73;;;;;;;;;;5041638;28;20514;-80
2022/06/16 07:08:48;;;;;;;10.57;8.07;;;;;;;;;;5037897;28;20033;-77
2022/06/16 07:11:14;;;;;;;9.90;8.38;;;;;;;;;;5035737;28;20026;-77
2022/06/16 07:13:41;;;;;;;9.65;8.05;;;;;;;;;;5037644;28;20014;-77
2022/06/16 07:16:07;;;;;;;11.05;9.30;;;;;;;;;;5037160;28;20021;-78
2022/06/16 07:18:34;;;;;;;12.13;9.38;;;;;;;;;;5030220;28;20026;-78
2022/06/16 07:21:00;;;;;;;8.90;8.00;;;;;;;;;;5039429;28;20017;-79
2022/06/16 07:23:27;;;;;;;10.77;8.55;;;;;;;;;;5037380;28;20022;-77
2022/06/16 07:25:53;;;;;;;11.23;8.55;;;;;;;;;;5021442;28;20040;-77
2022/06/16 07:28:20;;;;;;;9.52;8.52;;;;;;;;;;5018816;28;20079;-78
2022/06/16 07:30:46;;;;;;;13.90;9.15;;;;;;;;;;5032475;28;20029;-79
2022/06/16 07:33:12;;;;;;;12.18;9.15;;;;;;;;;;5038578;28;20043;-77
2022/06/16 07:35:41;;;;;;;10.75;9.27;;;;;;;;;;5037749;28;20125;-77
2022/06/16 07:38:07;;;;;;;12.05;9.85;;;;;;;;;;5037980;28;20017;-79
2022/06/16 07:40:33;;;;;;;12.25;8.75;;;;;;;;;;5036479;28;20045;-77
2022/06/16 07:42:59;;;;;;;10.93;9.57;;;;;;;;;;5038270;28;20029;-77
2022/06/16 07:45:26;;;;;;;9.70;8.75;;;;;;;;;;5037945;28;20605;-74
2022/06/16 07:47:52;;;;;;;10.73;8.98;;;;;;;;;;5037776;28;20079;-78
2022/06/16 07:50:19;;;;;;;11.07;8.80;;;;;;;;;;5038170;28;20030;-78
2022/06/16 07:52:45;;;;;;;9.93;8.35;;;;;;;;;;5036538;28;20423;-77
2022/06/16 07:55:12;;;;;;;12.93;8.40;;;;;;;;;;5032084;28;20145;-77
2022/06/16 07:57:46;;;;;;;10.63;8.88;;;;;;;;;;5039788;28;20033;-79
2022/06/16 08:00:13;;;;;;;9.85;8.80;;;;;;;;;;5016347;28;20030;-76
2022/06/16 08:02:40;;;;;;;11.77;8.15;;;;;;;;;;5018270;28;20022;-77
2022/06/16 08:05:06;;;;;;;10.60;8.38;;;;;;;;;;5017836;28;20086;-78
2022/06/16 08:07:32;;;;;;;10.32;8.02;;;;;;;;;;5019374;28;20093;-79
2022/06/16 08:09:59;;;;;;;8.95;7.95;;;;;;;;;;5022775;28;20037;-77
2022/06/16 08:12:26;;;;;;;9.95;8.30;;;;;;;;;;5056062;28;20115;-78
2022/06/16 08:14:52;;;;;;;8.80;7.90;;;;;;;;;;5051436;28;20080;-76
2022/06/16 08:17:26;;;;;;;9.30;8.30;;;;;;;;;;5038175;28;20037;-76
2022/06/16 08:19:53;;;;;;;9.50;7.90;;;;;;;;;;5036243;28;20025;-79
2022/06/16 08:22:19;;;;;;;9.43;7.68;;;;;;;;;;5036012;28;20025;-78
2022/06/16 08:24:47;;;;;;;9.10;7.70;;;;;;;;;;5037195;28;20036;-77
2022/06/16 08:27:14;;;;;;;9.00;7.75;;;;;;;;;;5049474;28;20021;-78
2022/06/16 08:29:42;;;;;;;8.07;7.28;;;;;;;;;;5035660;28;20030;-77
2022/06/16 08:32:08;;;;;;;9.15;8.02;;;;;;;;;;5035924;28;20028;-77
2022/06/16 08:34:34;;;;;;;8.65;7.68;;;;;;;;;;5033084;28;20021;-79
2022/06/16 08:37:00;;;;;;;9.55;7.60;;;;;;;;;;5033881;28;20057;-76
2022/06/16 08:39:26;;;;;;;8.40;7.45;;;;;;;;;;5048619;28;20021;-79
2022/06/16 08:41:52;;;;;;;9.00;7.60;;;;;;;;;;5058178;28;20032;-77
2022/06/16 08:44:28;;;;;;;9.27;7.30;;;;;;;;;;5058439;28;20048;-78
2022/06/16 08:46:55;;;;;;;9.80;7.03;;;;;;;;;;5037664;28;20083;-78
2022/06/16 08:49:30;;;;;;;8.98;7.10;;;;;;;;;;5039738;28;20035;-78
2022/06/16 08:52:05;;;;;;;10.07;7.00;;;;;;;;;;5037692;28;20503;-78
2022/06/16 08:54:39;;;;;;;7.85;6.60;;;;;;;;;;5039868;28;20463;-79
2022/06/16 08:57:08;;;;;;;9.32;6.38;;;;;;;;;;5057533;28;20037;-77
2022/06/16 08:59:34;;;;;;;7.28;6.25;;;;;;;;;;5058015;28;20446;-77
2022/06/16 09:02:04;;;;;;;8.45;6.63;;;;;;;;;;5055490;28;20021;-78
2022/06/16 09:04:36;;;;;;;8.77;6.82;;;;;;;;;;5058405;28;20021;-79
2022/06/16 09:07:20;;;;;;;8.25;7.38;;;;;;;;;;5061464;28;20033;-79
2022/06/16 09:12:59;;;;;;;7.75;6.95;;;;;;;;;;5039976;28;20106;-79
2022/06/16 09:15:44;;;;;;;9.75;7.25;;;;;;;;;;5039552;28;20028;-79
2022/06/16 09:18:29;;;;;;;8.00;6.85;;;;;;;;;;5021788;28;20026;-79
2022/06/16 09:20:58;;;;;;;9.50;7.00;;;;;;;;;;5042179;28;20093;-82
2022/06/16 09:23:34;;;;;;;8.80;7.35;;;;;;;;;;5024547;28;20511;-78
2022/06/16 09:26:18;;;;;;;8.18;7.20;;;;;;;;;;5037670;28;20116;-79
2022/06/16 09:28:44;;;;;;;7.68;6.88;;;;;;;;;;5037573;28;20032;-77
2022/06/16 09:31:17;;;;;;;8.25;7.00;;;;;;;;;;5033385;28;20029;-77
2022/06/16 09:33:49;;;;;;;9.70;7.45;;;;;;;;;;5055447;28;20394;-76
2022/06/16 09:36:22;;;;;;;8.63;7.60;;;;;;;;;;5055992;28;20059;-77
2022/06/16 09:38:57;;;;;;;8.85;7.20;;;;;;;;;;5053992;28;20055;-77
2022/06/16 09:44:33;;;;;;;9.38;7.18;;;;;;;;;;5055964;28;20039;-77
2022/06/16 09:47:03;;;;;;;8.20;6.88;;;;;;;;;;5037373;28;20038;-77
2022/06/16 09:49:42;;;;;;;8.10;6.70;;;;;;;;;;5036042;28;20081;-76
2022/06/16 09:52:12;;;;;;;8.77;7.03;;;;;;;;;;5035954;28;20041;-77
2022/06/16 09:54:49;;;;;;;8.35;6.50;;;;;;;;;;5044806;28;20143;-77
2022/06/16 09:57:26;;;;;;;8.57;6.75;;;;;;;;;;5035205;28;20487;-76
2022/06/16 09:59:57;;;;;;;8.60;6.80;;;;;;;;;;5036905;28;20108;-77
2022/06/16 10:02:32;;;;;;;8.07;6.90;;;;;;;;;;5036262;28;20487;-78
2022/06/16 10:04:59;;;;;;;7.65;6.00;;;;;;;;;;5038596;28;20060;-78
2022/06/16 10:07:28;;;;;;;8.82;6.30;;;;;;;;;;5056428;28;20108;-77
2022/06/16 10:10:00;;;;;;;7.80;6.32;;;;;;;;;;5054520;28;20025;-77
2022/06/16 10:12:45;;;;;;;7.90;6.30;;;;;;;;;;5056782;28;20051;-77
2022/06/16 10:15:23;;;;;;;8.52;6.07;;;;;;;;;;5055661;28;20087;-77
2022/06/16 10:17:53;;;;;;;7.18;5.88;;;;;;;;;;5054482;28;20088;-77
2022/06/16 10:20:21;;;;;;;8.65;6.25;;;;;;;;;;5055757;28;20450;-77
2022/06/16 10:22:49;;;;;;;7.13;5.93;;;;;;;;;;5056348;28;20029;-78
2022/06/16 10:25:25;;;;;;;8.10;5.40;;;;;;;;;;5056241;28;20032;-79
2022/06/16 10:28:00;;;;;;;7.78;5.75;;;;;;;;;;5037338;28;20053;-78
2022/06/16 10:30:39;;;;;;;6.32;5.50;;;;;;;;;;5036516;28;20506;-77
2022/06/16 10:33:17;;;;;;;8.57;5.72;;;;;;;;;;5034592;28;20098;-78
2022/06/16 10:35:46;;;;;;;7.97;5.65;;;;;;;;;;5034384;28;20082;-75
2022/06/16 10:38:13;;;;;;;7.82;5.50;;;;;;;;;;5035151;28;20033;-76
2022/06/16 10:40:42;;;;;;;7.53;5.13;;;;;;;;;;5018310;28;20411;-79
2022/06/16 10:43:14;;;;;;;7.57;5.45;;;;;;;;;;5017074;28;20022;-76
2022/06/16 10:45:40;;;;;;;7.38;5.30;;;;;;;;;;5014711;28;20026;-76
2022/06/16 10:48:19;;;;;;;8.00;5.70;;;;;;;;;;5020629;28;20025;-76
2022/06/16 10:50:50;;;;;;;7.82;5.28;;;;;;;;;;5055098;28;20053;-77
2022/06/16 10:53:23;;;;;;;7.32;5.22;;;;;;;;;;5055423;28;20438;-79
2022/06/16 10:55:50;;;;;;;8.80;5.20;;;;;;;;;;5054819;28;20045;-78
2022/06/16 10:58:20;;;;;;;7.90;5.75;;;;;;;;;;5055829;28;20027;-78
2022/06/16 11:01:00;;;;;;;6.60;5.50;;;;;;;;;;5051098;28;20027;-77
2022/06/16 11:03:26;;;;;;;6.95;5.80;;;;;;;;;;5041460;28;20078;-77
2022/06/16 11:05:52;;;;;;;7.00;5.57;;;;;;;;;;5059741;28;20032;-78
2022/06/16 11:08:20;;;;;;;7.60;5.40;;;;;;;;;;5060733;28;20076;-77
2022/06/16 11:10:57;;;;;;;8.35;5.70;;;;;;;;;;5057658;28;20029;-77
2022/06/16 11:13:27;;;;;;;8.57;5.75;;;;;;;;;;5038996;28;20029;-79
2022/06/16 11:15:53;;;;;;;6.22;4.90;;;;;;;;;;5048557;28;20037;-77
2022/06/16 11:18:25;;;;;;;8.90;5.60;;;;;;;;;;5038295;28;20022;-77
2022/06/16 11:20:55;;;;;;;7.93;5.40;;;;;;;;;;5038713;28;20021;-77
2022/06/16 11:23:27;;;;;;;6.72;5.47;;;;;;;;;;5037976;28;20510;-77
2022/06/16 11:26:14;;;;;;;6.68;5.40;;;;;;;;;;5055940;28;20075;-76
2022/06/16 11:28:44;;;;;;;7.15;5.35;;;;;;;;;;5051347;28;20057;-78
2022/06/16 11:31:14;;;;;;;6.90;5.40;;;;;;;;;;5038120;28;20030;-77
2022/06/16 11:36:44;;;;;;;10.02;5.75;;;;;;;;;;5018016;28;20072;-77
2022/06/16 11:39:17;;;;;;;8.00;5.32;;;;;;;;;;5019564;28;20025;-77
2022/06/16 11:41:46;;;;;;;6.80;5.40;;;;;;;;;;5021504;28;20080;-78
2022/06/16 11:44:35;;;;;;;6.60;5.15;;;;;;;;;;5059172;28;20025;-77
2022/06/16 11:47:07;;;;;;;7.93;4.90;;;;;;;;;;5049612;28;20492;-76
2022/06/16 11:49:38;;;;;;;6.15;5.05;;;;;;;;;;5039583;28;20106;-77
2022/06/16 11:52:27;;;;;;;7.97;5.00;;;;;;;;;;5043611;28;20511;-76
2022/06/16 11:55:12;;;;;;;6.88;5.32;;;;;;;;;;5055672;28;20044;-78
2022/06/16 11:57:46;;;;;;;6.18;4.68;;;;;;;;;;5056519;28;20033;-77
2022/06/16 12:00:19;;;;;;;6.18;5.22;;;;;;;;;;5035708;28;20034;-77
2022/06/16 12:03:04;;;;;;;6.43;4.70;;;;;;;;;;5038924;28;20030;-78
2022/06/16 12:05:37;;;;;;;6.25;5.18;;;;;;;;;;5038669;28;20021;-76
2022/06/16 12:08:03;;;;;;;15.75;11.65;;;;;;;;;;5037813;28;20431;-78
2022/06/16 12:10:44;;;;;;;6.35;4.93;;;;;;;;;;5054040;28;20058;-77
2022/06/16 12:13:27;;;;;;;8.57;5.00;;;;;;;;;;5058210;28;20047;-76
2022/06/16 12:16:05;;;;;;;6.97;5.25;;;;;;;;;;5058774;28;20429;-76
2022/06/16 12:18:31;;;;;;;6.22;4.78;;;;;;;;;;5043856;28;20368;-78
2022/06/16 12:20:57;;;;;;;7.53;5.15;;;;;;;;;;5036222;28;20025;-77
2022/06/16 12:23:31;;;;;;;5.95;4.85;;;;;;;;;;5036644;28;20155;-77
2022/06/16 12:25:57;;;;;;;7.60;5.20;;;;;;;;;;5035765;28;20080;-77
2022/06/16 12:28:36;;;;;;;6.95;5.00;;;;;;;;;;5037931;28;20398;-76
2022/06/16 12:31:07;;;;;;;7.20;5.20;;;;;;;;;;5038284;28;20030;-78
2022/06/16 12:33:46;;;;;;;7.22;5.20;;;;;;;;;;5037188;28;20488;-78
2022/06/16 12:36:14;;;;;;;6.22;4.80;;;;;;;;;;5052211;28;20021;-77
2022/06/16 12:38:52;;;;;;;8.25;5.47;;;;;;;;;;5057167;28;20036;-77
2022/06/16 12:41:20;;;;;;;6.90;5.75;;;;;;;;;;5058260;28;20505;-77
2022/06/16 12:43:50;;;;;;;6.15;4.57;;;;;;;;;;5056459;28;20124;-78
2022/06/16 12:46:23;;;;;;;6.28;4.78;;;;;;;;;;5037850;28;20412;-77
2022/06/16 12:48:54;;;;;;;6.45;5.07;;;;;;;;;;5037204;28;20033;-76
2022/06/16 12:51:21;;;;;;;5.47;4.30;;;;;;;;;;5037847;28;20030;-76
2022/06/16 12:53:48;;;;;;;8.15;5.18;;;;;;;;;;5034767;28;20494;-76
2022/06/16 12:56:20;;;;;;;6.18;4.78;;;;;;;;;;5034287;28;20041;-77
2022/06/16 12:59:03;;;;;;;6.88;5.20;;;;;;;;;;5034858;28;20040;-77
2022/06/16 13:01:32;;;;;;;7.78;5.00;;;;;;;;;;5035773;28;20033;-77
2022/06/16 13:04:01;;;;;;;8.90;5.22;;;;;;;;;;5036729;28;20021;-79
2022/06/16 13:06:28;;;;;;;6.55;5.38;;;;;;;;;;5036270;28;20029;-78
2022/06/16 13:08:56;;;;;;;7.90;5.22;;;;;;;;;;5036141;28;20029;-77
2022/06/16 13:11:27;;;;;;;5.53;4.68;;;;;;;;;;5036225;28;20108;-79
2022/06/16 13:13:56;;;;;;;6.78;5.15;;;;;;;;;;5037418;28;20026;-77
2022/06/16 13:16:25;;;;;;;7.10;5.45;;;;;;;;;;5021511;28;20052;-77
2022/06/16 13:18:56;;;;;;;8.10;5.00;;;;;;;;;;5017715;28;20026;-76
2022/06/16 13:21:24;;;;;;;6.95;4.85;;;;;;;;;;5016537;28;20045;-78
2022/06/16 13:23:55;;;;;;;6.75;5.47;;;;;;;;;;5015917;28;20384;-78
2022/06/16 13:26:21;;;;;;;7.18;5.60;;;;;;;;;;5026183;28;20088;-78
2022/06/16 13:29:09;;;;;;;6.47;5.15;;;;;;;;;;5019336;28;20025;-78
2022/06/16 13:31:46;;;;;;;6.95;5.20;;;;;;;;;;5015099;28;20105;-79
2022/06/16 13:34:12;;;;;;;6.35;5.00;;;;;;;;;;5016184;28;20135;-77
2022/06/16 13:36:56;;;;;;;7.15;5.50;;;;;;;;;;5030378;28;20033;-76
2022/06/16 13:39:56;;;;;;;6.70;5.20;;;;;;;;;;5035669;28;20044;-76
2022/06/16 13:42:41;;;;;;;7.18;5.32;;;;;;;;;;5052316;28;20029;-79
2022/06/16 13:45:13;;;;;;;5.97;5.38;;;;;;;;;;5052438;28;20394;-78
2022/06/16 13:47:43;;;;;;;6.60;4.90;;;;;;;;;;5036386;28;20021;-78
2022/06/16 13:50:11;;;;;;;7.97;6.35;;;;;;;;;;5053708;28;20071;-77
2022/06/16 13:52:42;;;;;;;8.40;5.22;;;;;;;;;;5036691;28;20028;-77
2022/06/16 13:55:23;;;;;;;7.88;5.35;;;;;;;;;;5036073;28;20040;-77
2022/06/16 13:58:07;;;;;;;7.10;5.60;;;;;;;;;;5052685;28;20588;-76
2022/06/16 14:00:35;;;;;;;6.80;5.75;;;;;;;;;;5035402;28;20078;-77
2022/06/16 14:03:07;;;;;;;7.57;5.38;;;;;;;;;;5053233;28;20079;-77
2022/06/16 14:05:34;;;;;;;6.30;5.57;;;;;;;;;;5037166;28;20037;-77
2022/06/16 14:08:04;;;;;;;5.88;4.75;;;;;;;;;;5053227;28;20036;-77
2022/06/16 14:10:34;;;;;;;9.30;5.28;;;;;;;;;;5054004;28;20467;-77
2022/06/16 14:13:02;;;;;;;7.63;5.40;;;;;;;;;;5036492;28;20029;-78
2022/06/16 14:15:46;;;;;;;7.50;5.53;;;;;;;;;;5053441;28;20029;-76
2022/06/16 14:18:21;;;;;;;7.90;5.63;;;;;;;;;;5029751;28;20042;-76
2022/06/16 14:20:49;;;;;;;7.20;5.63;;;;;;;;;;5040505;28;20028;-77
2022/06/16 14:23:20;;;;;;;7.40;6.38;;;;;;;;;;5047135;28;20107;-76
2022/06/16 14:25:48;;;;;;;7.72;6.10;;;;;;;;;;5019145;28;20489;-79
2022/06/16 14:28:25;;;;;;;7.55;6.40;;;;;;;;;;5035600;28;20026;-77
2022/06/16 14:30:55;;;;;;;6.88;5.70;;;;;;;;;;5035843;28;20110;-78
2022/06/16 14:33:31;;;;;;;7.55;6.43;;;;;;;;;;5038425;28;20061;-77
2022/06/16 14:36:10;;;;;;;7.13;5.78;;;;;;;;;;5038240;28;20113;-78
2022/06/16 14:38:44;;;;;;;8.23;7.18;;;;;;;;;;5039880;28;20488;-78
2022/06/16 14:41:29;;;;;;;6.80;5.95;;;;;;;;;;5038728;28;20033;-77
2022/06/16 14:43:56;;;;;;;8.00;6.18;;;;;;;;;;5039313;28;20163;-78
2022/06/16 14:46:48;;;;;;;9.82;6.13;;;;;;;;;;5040031;28;20053;-77
2022/06/16 14:49:27;;;;;;;6.75;5.70;;;;;;;;;;5052363;28;20037;-77
2022/06/16 14:52:03;;;;;;;7.18;5.88;;;;;;;;;;5060160;28;20058;-77
2022/06/16 14:54:37;;;;;;;8.85;6.07;;;;;;;;;;5059596;28;20072;-77
2022/06/16 14:57:03;;;;;;;9.52;6.45;;;;;;;;;;5042602;28;20018;-77
2022/06/16 14:59:39;;;;;;;9.13;6.30;;;;;;;;;;5022091;28;20096;-78
2022/06/16 15:02:13;;;;;;;10.43;6.78;;;;;;;;;;5024227;28;20022;-78
2022/06/16 15:04:39;;;;;;;7.90;7.10;;;;;;;;;;5022601;28;20503;-78
2022/06/16 15:07:09;;;;;;;10.65;8.23;;;;;;;;;;5024143;28;20029;-77
2022/06/16 15:09:37;;;;;;;10.40;7.88;;;;;;;;;;5024711;28;20052;-80
2022/06/16 15:12:04;;;;;;;9.63;8.38;;;;;;;;;;5030804;28;20029;-79
2022/06/16 15:14:31;;;;;;;9.43;8.40;;;;;;;;;;5043101;28;20518;-78